747解体 ver.1.1.1

LUXURY FLIGHT

080-7560-1817

羽田空港本店:東京都大田区羽田空港3-3-2
第1旅客ターミナル5階
営業時間:10:00~20:00 定休日:年中無休
電話番号:080-7560-1817

セントレア店:愛知県常滑市セントレア1-1
FLIGHT OF DREAMS FLIGHT PARK
営業時間:10:00~20:00 定休日:年中無休
電話番号:080-4945-5666

lv

747解体 ver.1.1.1

STAFF BLOG

2019/11/29 747解体 ver.1.1.1

こんにちはーーーーー

 

本日の羽田周辺、よく晴れております!!

 

RJTT 290300Z 05007KT 010V080 9999 FEW025 08/M02 Q1024 NOSIG

RMK 1CU025 A3024

 

さてさてさて、お待たせしました

747の解体第三弾

 

前回は確か下の写真くらいまでのご報告だったかと思います!!

 

img_3750

 

 

それでは…

 

 

 

img_3748

 

おっ、早速見覚えのある後ろ姿。笑

わかる人にはわかる、あのお方です。

 

今回は移転の総監督として、スタッフの安全を守ります!!

 

 

 

img_3751

 

だいぶバラしも進み、土台だけになりました。

床下は本物の飛行機のように、配線やらフレームやらが縦横無尽に張り巡らされています。

 

部品が詰まっているため、一個一個が重すぎて…

 

 

img_3753

何とか解体が終了しました。

 

この時すでに深夜0時

 

輸送中の損傷が無いよう、トラックの積載状況を確認し

無事に送り出したら深夜1時。笑

 

なかなかハードでございました。

 

既にセントレアに移設された747君は絶好調で動いているとの事。

嬉しい限りです

 

12/1(日)より一般のお客様へのご予約受付を開始いたしますので、

ぜひ、遊びに来てくださーーーい

 

 

 

いつもブログを読んでくださり本当にありがとうございます。

 

 

「感謝」

 

TOP